Ashley, Pennsylvania
Current Conditions -  °F | °C
As of 5:54 PM on Saturday 25 Oct 2014 (Local Time) from KAVP Reporting Station
Overcast Overcast  
Wind Chill: 18°   Ceiling: 6500
Heat Index: 18°   Visibility: 10mi
Dew Point:   Wind: 9mph
Humidity: 45%   Direction: 230°SW
Pressure: 29.63"   Gusts: NA
Location:  41.1921°N, 75.9213°W
Report Text: KAVP 252154Z AUTO 23008KT 10SM OVC065 18/06 A2963 RMK AO2 SLP033 T01830061
Loading
Personal Weather Stations






























Interactive Weather Map
Tropical Storm Tracking
New forecast layout! Learn more

10-Day Weather Forecast

Advertisements
Track Severe Weather on mobile